sensor_id;sensor_type;location;lat;lon;timestamp;pressure;altitude;pressure_sealevel;temperature;humidity
1652;BME280;823;49.028;8.454;2023-06-14T00:01:43;99907.59;;;20.99;39.93
1652;BME280;823;49.028;8.454;2023-06-14T00:06:45;99906.72;;;20.88;39.44
1652;BME280;823;49.028;8.454;2023-06-14T00:11:45;99909.16;;;20.80;39.52
1652;BME280;823;49.028;8.454;2023-06-14T00:16:45;99906.31;;;20.72;40.30
1652;BME280;823;49.028;8.454;2023-06-14T00:21:46;99896.97;;;20.79;39.62
1652;BME280;823;49.028;8.454;2023-06-14T00:26:46;99904.78;;;20.69;40.40
1652;BME280;823;49.028;8.454;2023-06-14T00:31:47;99903.28;;;20.55;40.44
1652;BME280;823;49.028;8.454;2023-06-14T00:36:47;99904.34;;;20.53;40.44
1652;BME280;823;49.028;8.454;2023-06-14T00:41:47;99900.38;;;20.58;40.45
1652;BME280;823;49.028;8.454;2023-06-14T00:46:47;99894.25;;;20.48;40.54
1652;BME280;823;49.028;8.454;2023-06-14T00:51:48;99895.66;;;20.52;40.94
1652;BME280;823;49.028;8.454;2023-06-14T00:56:48;99896.31;;;20.33;40.84
1652;BME280;823;49.028;8.454;2023-06-14T01:01:48;99901.25;;;20.27;40.91
1652;BME280;823;49.028;8.454;2023-06-14T01:07:07;99901.84;;;20.30;41.08
1652;BME280;823;49.028;8.454;2023-06-14T01:12:15;99902.66;;;20.31;41.68
1652;BME280;823;49.028;8.454;2023-06-14T01:17:21;99908.34;;;20.15;41.16
1652;BME280;823;49.028;8.454;2023-06-14T01:22:24;99905.72;;;20.15;40.97
1652;BME280;823;49.028;8.454;2023-06-14T01:27:25;99913.50;;;20.05;40.91
1652;BME280;823;49.028;8.454;2023-06-14T01:32:28;99914.84;;;19.99;41.35
1652;BME280;823;49.028;8.454;2023-06-14T01:37:29;99909.81;;;19.96;41.63
1652;BME280;823;49.028;8.454;2023-06-14T01:42:30;99922.34;;;19.93;42.07
1652;BME280;823;49.028;8.454;2023-06-14T01:47:31;99910.06;;;19.93;41.33
1652;BME280;823;49.028;8.454;2023-06-14T01:52:31;99912.69;;;19.93;41.02
1652;BME280;823;49.028;8.454;2023-06-14T01:57:31;99912.81;;;19.92;40.81
1652;BME280;823;49.028;8.454;2023-06-14T02:02:31;99915.56;;;19.90;41.52
1652;BME280;823;49.028;8.454;2023-06-14T02:07:32;99911.59;;;19.96;42.35
1652;BME280;823;49.028;8.454;2023-06-14T02:12:33;99910.66;;;19.97;40.57
1652;BME280;823;49.028;8.454;2023-06-14T02:17:33;99914.94;;;19.98;41.55
1652;BME280;823;49.028;8.454;2023-06-14T02:22:34;99919.97;;;20.01;40.51
1652;BME280;823;49.028;8.454;2023-06-14T02:27:34;99914.44;;;20.04;39.95
1652;BME280;823;49.028;8.454;2023-06-14T02:32:35;99924.81;;;20.05;38.68
1652;BME280;823;49.028;8.454;2023-06-14T02:37:35;99934.38;;;20.06;39.19
1652;BME280;823;49.028;8.454;2023-06-14T02:42:36;99948.47;;;19.94;39.26
1652;BME280;823;49.028;8.454;2023-06-14T02:47:36;99943.94;;;19.85;40.18
1652;BME280;823;49.028;8.454;2023-06-14T02:52:36;99947.53;;;19.84;39.93
1652;BME280;823;49.028;8.454;2023-06-14T02:57:36;99947.16;;;19.66;39.39
1652;BME280;823;49.028;8.454;2023-06-14T03:02:37;99952.88;;;19.60;40.53
1652;BME280;823;49.028;8.454;2023-06-14T03:07:37;99950.03;;;19.40;40.69
1652;BME280;823;49.028;8.454;2023-06-14T03:12:40;99949.06;;;19.41;41.84
1652;BME280;823;49.028;8.454;2023-06-14T03:17:41;99951.56;;;19.31;41.43
1652;BME280;823;49.028;8.454;2023-06-14T03:22:45;99971.34;;;19.24;41.20
1652;BME280;823;49.028;8.454;2023-06-14T03:27:46;99970.75;;;19.20;40.45
1652;BME280;823;49.028;8.454;2023-06-14T03:32:46;99976.69;;;19.22;41.58
1652;BME280;823;49.028;8.454;2023-06-14T03:37:46;99975.88;;;19.22;40.99
1652;BME280;823;49.028;8.454;2023-06-14T03:42:47;99981.69;;;19.26;41.88
1652;BME280;823;49.028;8.454;2023-06-14T03:47:47;99986.69;;;19.17;41.05
1652;BME280;823;49.028;8.454;2023-06-14T03:52:48;99998.34;;;19.13;40.50
1652;BME280;823;49.028;8.454;2023-06-14T03:57:48;100001.34;;;19.20;42.28
1652;BME280;823;49.028;8.454;2023-06-14T04:02:48;100016.25;;;19.19;41.79
1652;BME280;823;49.028;8.454;2023-06-14T04:07:49;100016.69;;;19.13;41.85
1652;BME280;823;49.028;8.454;2023-06-14T04:12:50;100012.88;;;19.06;41.95
1652;BME280;823;49.028;8.454;2023-06-14T04:17:51;100021.75;;;19.16;42.40
1652;BME280;823;49.028;8.454;2023-06-14T04:22:52;100017.94;;;19.20;42.29
1652;BME280;823;49.028;8.454;2023-06-14T04:27:57;100038.19;;;19.30;42.01
1652;BME280;823;49.028;8.454;2023-06-14T04:32:57;100028.69;;;19.40;42.31
1652;BME280;823;49.028;8.454;2023-06-14T04:37:58;100040.16;;;19.50;42.12
1652;BME280;823;49.028;8.454;2023-06-14T04:42:59;100051.97;;;19.56;41.36
1652;BME280;823;49.028;8.454;2023-06-14T04:47:59;100052.94;;;19.66;41.62
1652;BME280;823;49.028;8.454;2023-06-14T04:52:59;100058.66;;;19.71;41.86
1652;BME280;823;49.028;8.454;2023-06-14T04:58:00;100056.09;;;19.83;42.60
1652;BME280;823;49.028;8.454;2023-06-14T05:03:00;100065.16;;;19.90;41.16
1652;BME280;823;49.028;8.454;2023-06-14T05:08:01;100070.63;;;20.10;41.75
1652;BME280;823;49.028;8.454;2023-06-14T05:13:01;100074.09;;;20.21;41.48
1652;BME280;823;49.028;8.454;2023-06-14T05:18:01;100078.63;;;20.31;40.98
1652;BME280;823;49.028;8.454;2023-06-14T05:23:02;100085.03;;;20.38;39.74
1652;BME280;823;49.028;8.454;2023-06-14T05:28:03;100080.88;;;20.47;39.08
1652;BME280;823;49.028;8.454;2023-06-14T05:33:04;100081.44;;;20.62;39.56
1652;BME280;823;49.028;8.454;2023-06-14T05:38:04;100092.41;;;20.78;41.06
1652;BME280;823;49.028;8.454;2023-06-14T05:43:04;100091.78;;;20.86;38.61
1652;BME280;823;49.028;8.454;2023-06-14T05:48:04;100095.53;;;21.04;37.82
1652;BME280;823;49.028;8.454;2023-06-14T05:53:05;100100.84;;;21.25;39.62
1652;BME280;823;49.028;8.454;2023-06-14T05:58:05;100097.41;;;21.46;39.14
1652;BME280;823;49.028;8.454;2023-06-14T06:03:05;100106.66;;;21.62;37.98
1652;BME280;823;49.028;8.454;2023-06-14T06:08:08;100102.72;;;21.77;37.30
1652;BME280;823;49.028;8.454;2023-06-14T06:13:08;100105.94;;;22.11;38.16
1652;BME280;823;49.028;8.454;2023-06-14T06:18:08;100102.94;;;22.26;37.14
1652;BME280;823;49.028;8.454;2023-06-14T06:23:08;100113.84;;;22.42;35.99
1652;BME280;823;49.028;8.454;2023-06-14T06:28:09;100112.47;;;22.48;36.35
1652;BME280;823;49.028;8.454;2023-06-14T06:33:09;100110.44;;;22.61;35.51
1652;BME280;823;49.028;8.454;2023-06-14T06:38:10;100119.16;;;22.72;37.25
1652;BME280;823;49.028;8.454;2023-06-14T06:43:10;100119.47;;;22.88;35.53
1652;BME280;823;49.028;8.454;2023-06-14T06:48:13;100112.97;;;22.92;35.03
1652;BME280;823;49.028;8.454;2023-06-14T06:53:13;100124.63;;;23.09;35.27
1652;BME280;823;49.028;8.454;2023-06-14T06:58:14;100134.81;;;23.14;34.79
1652;BME280;823;49.028;8.454;2023-06-14T07:03:14;100135.78;;;23.23;34.46
1652;BME280;823;49.028;8.454;2023-06-14T07:08:14;100132.44;;;23.31;35.17
1652;BME280;823;49.028;8.454;2023-06-14T07:13:14;100143.41;;;23.45;34.19
1652;BME280;823;49.028;8.454;2023-06-14T07:18:15;100147.56;;;23.68;33.66
1652;BME280;823;49.028;8.454;2023-06-14T07:23:15;100145.84;;;23.86;33.10
1652;BME280;823;49.028;8.454;2023-06-14T07:28:16;100161.13;;;23.92;33.80
1652;BME280;823;49.028;8.454;2023-06-14T07:33:17;100161.19;;;24.20;32.85
1652;BME280;823;49.028;8.454;2023-06-14T07:38:17;100163.09;;;23.90;32.05
1652;BME280;823;49.028;8.454;2023-06-14T07:43:17;100158.34;;;24.04;34.21
1652;BME280;823;49.028;8.454;2023-06-14T07:48:18;100163.81;;;24.30;33.04
1652;BME280;823;49.028;8.454;2023-06-14T07:53:18;100163.41;;;24.53;33.18
1652;BME280;823;49.028;8.454;2023-06-14T07:58:18;100163.56;;;24.51;30.97
1652;BME280;823;49.028;8.454;2023-06-14T08:03:18;100161.16;;;24.68;31.12
1652;BME280;823;49.028;8.454;2023-06-14T08:08:19;100153.56;;;24.83;30.98
1652;BME280;823;49.028;8.454;2023-06-14T08:13:19;100154.06;;;24.86;31.11
1652;BME280;823;49.028;8.454;2023-06-14T08:18:20;100157.69;;;25.03;30.45
1652;BME280;823;49.028;8.454;2023-06-14T08:23:20;100161.63;;;25.17;30.21
1652;BME280;823;49.028;8.454;2023-06-14T08:28:21;100160.66;;;25.18;30.80
1652;BME280;823;49.028;8.454;2023-06-14T08:33:21;100156.81;;;25.30;29.21
1652;BME280;823;49.028;8.454;2023-06-14T08:38:21;100162.50;;;25.54;29.60
1652;BME280;823;49.028;8.454;2023-06-14T08:43:21;100157.09;;;25.63;28.84
1652;BME280;823;49.028;8.454;2023-06-14T08:48:21;100168.66;;;25.62;30.07
1652;BME280;823;49.028;8.454;2023-06-14T08:53:23;100166.47;;;25.76;28.83
1652;BME280;823;49.028;8.454;2023-06-14T08:58:24;100164.47;;;25.78;28.94
1652;BME280;823;49.028;8.454;2023-06-14T09:03:24;100158.06;;;26.07;28.76
1652;BME280;823;49.028;8.454;2023-06-14T09:08:29;100157.41;;;26.05;28.71
1652;BME280;823;49.028;8.454;2023-06-14T09:13:30;100157.13;;;26.16;28.05
1652;BME280;823;49.028;8.454;2023-06-14T09:18:37;100158.66;;;26.27;27.76
1652;BME280;823;49.028;8.454;2023-06-14T09:23:39;100156.06;;;26.35;28.26
1652;BME280;823;49.028;8.454;2023-06-14T09:28:43;100158.91;;;26.50;27.49
1652;BME280;823;49.028;8.454;2023-06-14T09:33:48;100156.97;;;26.60;27.35
1652;BME280;823;49.028;8.454;2023-06-14T09:43:58;100166.16;;;26.74;27.22
1652;BME280;823;49.028;8.454;2023-06-14T09:49:02;100164.88;;;26.87;27.03
1652;BME280;823;49.028;8.454;2023-06-14T09:54:03;100161.25;;;26.96;26.71
1652;BME280;823;49.028;8.454;2023-06-14T09:59:09;100172.69;;;27.05;26.79
1652;BME280;823;49.028;8.454;2023-06-14T10:04:10;100174.50;;;27.12;25.49
1652;BME280;823;49.028;8.454;2023-06-14T10:09:11;100161.25;;;27.21;26.05
1652;BME280;823;49.028;8.454;2023-06-14T10:14:12;100170.72;;;27.23;24.79
1652;BME280;823;49.028;8.454;2023-06-14T10:19:20;100171.09;;;27.37;26.46
1652;BME280;823;49.028;8.454;2023-06-14T10:24:29;100161.47;;;27.52;25.10
1652;BME280;823;49.028;8.454;2023-06-14T10:29:30;100155.50;;;27.66;24.07
1652;BME280;823;49.028;8.454;2023-06-14T10:34:32;100148.00;;;27.70;24.23
1652;BME280;823;49.028;8.454;2023-06-14T10:39:45;100140.53;;;27.74;24.28
1652;BME280;823;49.028;8.454;2023-06-14T10:44:50;100154.81;;;27.73;24.39
1652;BME280;823;49.028;8.454;2023-06-14T10:55:09;100158.50;;;28.28;23.75
1652;BME280;823;49.028;8.454;2023-06-14T11:00:14;100153.94;;;28.45;24.01
1652;BME280;823;49.028;8.454;2023-06-14T11:05:24;100147.09;;;28.50;23.30
1652;BME280;823;49.028;8.454;2023-06-14T11:10:38;100141.97;;;28.49;22.49
1652;BME280;823;49.028;8.454;2023-06-14T11:15:44;100141.97;;;28.49;23.02
1652;BME280;823;49.028;8.454;2023-06-14T11:20:46;100132.44;;;28.15;23.41
1652;BME280;823;49.028;8.454;2023-06-14T11:25:53;100128.91;;;28.31;23.63
1652;BME280;823;49.028;8.454;2023-06-14T11:31:00;100134.38;;;28.37;23.72
1652;BME280;823;49.028;8.454;2023-06-14T11:36:05;100145.72;;;28.23;24.52
1652;BME280;823;49.028;8.454;2023-06-14T11:41:08;100146.41;;;28.17;24.49
1652;BME280;823;49.028;8.454;2023-06-14T11:46:14;100136.56;;;28.26;25.07
1652;BME280;823;49.028;8.454;2023-06-14T11:51:22;100120.44;;;28.27;24.34
1652;BME280;823;49.028;8.454;2023-06-14T11:56:22;100127.41;;;28.28;23.30
1652;BME280;823;49.028;8.454;2023-06-14T12:01:23;100129.78;;;28.15;24.24
1652;BME280;823;49.028;8.454;2023-06-14T12:06:27;100131.63;;;28.14;24.29
1652;BME280;823;49.028;8.454;2023-06-14T12:11:35;100127.19;;;27.98;25.37
1652;BME280;823;49.028;8.454;2023-06-14T12:16:38;100125.19;;;27.92;24.39
1652;BME280;823;49.028;8.454;2023-06-14T12:21:40;100132.50;;;27.98;24.59
1652;BME280;823;49.028;8.454;2023-06-14T12:26:41;100124.28;;;28.25;25.08
1652;BME280;823;49.028;8.454;2023-06-14T12:31:42;100128.44;;;28.59;25.07
1652;BME280;823;49.028;8.454;2023-06-14T12:36:42;100132.56;;;28.69;24.10
1652;BME280;823;49.028;8.454;2023-06-14T12:41:44;100127.06;;;28.71;24.08
1652;BME280;823;49.028;8.454;2023-06-14T12:46:45;100130.91;;;28.68;24.06
1652;BME280;823;49.028;8.454;2023-06-14T12:51:46;100114.88;;;28.77;23.17
1652;BME280;823;49.028;8.454;2023-06-14T12:56:46;100121.16;;;29.07;23.28
1652;BME280;823;49.028;8.454;2023-06-14T13:01:46;100119.91;;;29.18;23.03
1652;BME280;823;49.028;8.454;2023-06-14T13:06:49;100130.38;;;29.19;23.00
1652;BME280;823;49.028;8.454;2023-06-14T13:11:50;100134.19;;;29.25;22.77
1652;BME280;823;49.028;8.454;2023-06-14T13:16:50;100139.09;;;29.13;23.16
1652;BME280;823;49.028;8.454;2023-06-14T13:21:51;100144.09;;;28.85;22.17
1652;BME280;823;49.028;8.454;2023-06-14T13:26:51;100137.97;;;28.84;24.64
1652;BME280;823;49.028;8.454;2023-06-14T13:31:52;100129.97;;;29.08;22.40
1652;BME280;823;49.028;8.454;2023-06-14T13:36:53;100129.81;;;29.32;22.46
1652;BME280;823;49.028;8.454;2023-06-14T13:41:53;100124.63;;;29.54;21.73
1652;BME280;823;49.028;8.454;2023-06-14T13:46:54;100121.31;;;29.67;20.84
1652;BME280;823;49.028;8.454;2023-06-14T13:51:54;100108.81;;;29.52;20.53
1652;BME280;823;49.028;8.454;2023-06-14T13:56:54;100119.47;;;29.52;22.09
1652;BME280;823;49.028;8.454;2023-06-14T14:01:55;100104.13;;;29.69;21.15
1652;BME280;823;49.028;8.454;2023-06-14T14:06:55;100108.53;;;29.47;20.25
1652;BME280;823;49.028;8.454;2023-06-14T14:11:55;100119.25;;;29.16;20.81
1652;BME280;823;49.028;8.454;2023-06-14T14:16:56;100111.13;;;28.94;20.98
1652;BME280;823;49.028;8.454;2023-06-14T14:21:56;100102.78;;;28.97;20.45
1652;BME280;823;49.028;8.454;2023-06-14T14:26:57;100120.81;;;28.87;20.96
1652;BME280;823;49.028;8.454;2023-06-14T14:32:00;100112.94;;;29.17;21.50
1652;BME280;823;49.028;8.454;2023-06-14T14:37:00;100109.44;;;29.16;21.03
1652;BME280;823;49.028;8.454;2023-06-14T14:42:00;100115.84;;;29.30;20.21
1652;BME280;823;49.028;8.454;2023-06-14T14:47:01;100113.59;;;29.19;19.75
1652;BME280;823;49.028;8.454;2023-06-14T14:52:01;100117.88;;;29.20;20.41
1652;BME280;823;49.028;8.454;2023-06-14T14:57:02;100119.81;;;29.34;20.49
1652;BME280;823;49.028;8.454;2023-06-14T15:02:02;100117.13;;;29.11;20.43
1652;BME280;823;49.028;8.454;2023-06-14T15:07:03;100111.41;;;28.99;21.02
1652;BME280;823;49.028;8.454;2023-06-14T15:12:04;100107.66;;;29.09;21.56
1652;BME280;823;49.028;8.454;2023-06-14T15:17:04;100115.50;;;28.87;20.18
1652;BME280;823;49.028;8.454;2023-06-14T15:22:05;100109.44;;;28.93;22.27
1652;BME280;823;49.028;8.454;2023-06-14T15:27:05;100117.53;;;28.77;20.08
1652;BME280;823;49.028;8.454;2023-06-14T15:32:06;100116.19;;;28.81;21.52
1652;BME280;823;49.028;8.454;2023-06-14T15:37:07;100119.53;;;28.83;21.27
1652;BME280;823;49.028;8.454;2023-06-14T15:42:07;100108.41;;;29.02;21.38
1652;BME280;823;49.028;8.454;2023-06-14T15:47:08;100114.00;;;28.84;20.51
1652;BME280;823;49.028;8.454;2023-06-14T15:52:08;100108.56;;;29.01;20.60
1652;BME280;823;49.028;8.454;2023-06-14T15:57:08;100108.03;;;29.05;20.41
1652;BME280;823;49.028;8.454;2023-06-14T16:02:09;100098.44;;;28.96;21.43
1652;BME280;823;49.028;8.454;2023-06-14T16:07:10;100098.94;;;29.00;21.97
1652;BME280;823;49.028;8.454;2023-06-14T16:12:12;100096.25;;;29.00;20.43
1652;BME280;823;49.028;8.454;2023-06-14T16:17:13;100101.28;;;28.95;21.75
1652;BME280;823;49.028;8.454;2023-06-14T16:22:13;100096.25;;;28.77;21.23
1652;BME280;823;49.028;8.454;2023-06-14T16:27:13;100101.75;;;28.75;21.20
1652;BME280;823;49.028;8.454;2023-06-14T16:32:15;100111.28;;;28.61;21.34
1652;BME280;823;49.028;8.454;2023-06-14T16:37:16;100107.63;;;28.62;21.87
1652;BME280;823;49.028;8.454;2023-06-14T16:42:16;100106.69;;;28.55;21.42
1652;BME280;823;49.028;8.454;2023-06-14T16:47:17;100113.00;;;28.54;22.05
1652;BME280;823;49.028;8.454;2023-06-14T16:52:17;100117.97;;;28.65;21.56
1652;BME280;823;49.028;8.454;2023-06-14T16:57:17;100120.28;;;28.60;22.33
1652;BME280;823;49.028;8.454;2023-06-14T17:02:18;100122.97;;;28.52;22.47
1652;BME280;823;49.028;8.454;2023-06-14T17:07:18;100124.34;;;28.48;21.76
1652;BME280;823;49.028;8.454;2023-06-14T17:12:18;100123.28;;;28.26;21.69
1652;BME280;823;49.028;8.454;2023-06-14T17:17:18;100136.38;;;28.27;22.46
1652;BME280;823;49.028;8.454;2023-06-14T17:22:19;100140.41;;;28.23;23.26
1652;BME280;823;49.028;8.454;2023-06-14T17:27:20;100144.00;;;28.39;23.08
1652;BME280;823;49.028;8.454;2023-06-14T17:32:20;100146.03;;;28.28;23.71
1652;BME280;823;49.028;8.454;2023-06-14T17:37:20;100157.06;;;28.17;23.74
1652;BME280;823;49.028;8.454;2023-06-14T17:42:20;100156.09;;;28.10;24.04
1652;BME280;823;49.028;8.454;2023-06-14T17:47:22;100165.75;;;28.02;24.01
1652;BME280;823;49.028;8.454;2023-06-14T17:52:23;100168.88;;;27.98;24.30
1652;BME280;823;49.028;8.454;2023-06-14T17:57:23;100163.22;;;28.01;24.53
1652;BME280;823;49.028;8.454;2023-06-14T18:02:24;100169.22;;;28.03;25.39
1652;BME280;823;49.028;8.454;2023-06-14T18:07:24;100169.03;;;27.96;26.29
1652;BME280;823;49.028;8.454;2023-06-14T18:12:24;100163.28;;;27.76;25.01
1652;BME280;823;49.028;8.454;2023-06-14T18:17:25;100180.69;;;27.70;24.31
1652;BME280;823;49.028;8.454;2023-06-14T18:22:25;100185.53;;;27.75;25.11
1652;BME280;823;49.028;8.454;2023-06-14T18:27:26;100186.69;;;27.73;24.96
1652;BME280;823;49.028;8.454;2023-06-14T18:32:26;100186.34;;;27.67;25.16
1652;BME280;823;49.028;8.454;2023-06-14T18:37:31;100191.03;;;27.49;25.18
1652;BME280;823;49.028;8.454;2023-06-14T18:42:32;100198.94;;;27.24;24.98
1652;BME280;823;49.028;8.454;2023-06-14T18:47:32;100185.66;;;27.16;25.27
1652;BME280;823;49.028;8.454;2023-06-14T18:52:32;100191.44;;;27.03;25.57
1652;BME280;823;49.028;8.454;2023-06-14T18:57:33;100202.22;;;26.93;25.88
1652;BME280;823;49.028;8.454;2023-06-14T19:02:33;100200.50;;;26.84;26.04
1652;BME280;823;49.028;8.454;2023-06-14T19:07:33;100207.56;;;26.67;26.24
1652;BME280;823;49.028;8.454;2023-06-14T19:12:34;100210.34;;;26.57;26.81
1652;BME280;823;49.028;8.454;2023-06-14T19:17:34;100213.91;;;26.40;26.82
1652;BME280;823;49.028;8.454;2023-06-14T19:22:34;100221.16;;;26.29;27.18
1652;BME280;823;49.028;8.454;2023-06-14T19:27:36;100220.72;;;26.16;27.12
1652;BME280;823;49.028;8.454;2023-06-14T19:32:36;100227.81;;;26.07;27.21
1652;BME280;823;49.028;8.454;2023-06-14T19:37:37;100239.09;;;25.91;27.60
1652;BME280;823;49.028;8.454;2023-06-14T19:42:37;100245.47;;;25.80;28.15
1652;BME280;823;49.028;8.454;2023-06-14T19:47:39;100247.81;;;25.65;28.08
1652;BME280;823;49.028;8.454;2023-06-14T19:52:39;100249.94;;;25.62;30.05
1652;BME280;823;49.028;8.454;2023-06-14T19:57:39;100259.91;;;25.50;30.41
1652;BME280;823;49.028;8.454;2023-06-14T20:02:40;100270.34;;;25.33;29.79
1652;BME280;823;49.028;8.454;2023-06-14T20:07:40;100270.38;;;25.24;30.01
1652;BME280;823;49.028;8.454;2023-06-14T20:12:40;100279.09;;;25.16;31.01
1652;BME280;823;49.028;8.454;2023-06-14T20:17:41;100276.53;;;24.96;30.27
1652;BME280;823;49.028;8.454;2023-06-14T20:22:41;100278.38;;;24.86;31.02
1652;BME280;823;49.028;8.454;2023-06-14T20:27:41;100287.19;;;24.77;31.94
1652;BME280;823;49.028;8.454;2023-06-14T20:32:41;100284.31;;;24.60;31.36
1652;BME280;823;49.028;8.454;2023-06-14T20:37:42;100286.44;;;24.47;34.09
1652;BME280;823;49.028;8.454;2023-06-14T20:42:42;100285.91;;;24.34;34.49
1652;BME280;823;49.028;8.454;2023-06-14T20:47:45;100289.88;;;24.00;33.46
1652;BME280;823;49.028;8.454;2023-06-14T20:52:45;100289.31;;;23.96;34.94
1652;BME280;823;49.028;8.454;2023-06-14T20:57:46;100286.53;;;23.88;35.27
1652;BME280;823;49.028;8.454;2023-06-14T21:02:46;100293.59;;;23.78;35.73
1652;BME280;823;49.028;8.454;2023-06-14T21:07:47;100286.25;;;23.72;36.34
1652;BME280;823;49.028;8.454;2023-06-14T21:12:47;100297.06;;;23.69;36.47
1652;BME280;823;49.028;8.454;2023-06-14T21:17:47;100287.06;;;23.62;36.84
1652;BME280;823;49.028;8.454;2023-06-14T21:22:47;100295.94;;;23.61;36.67
1652;BME280;823;49.028;8.454;2023-06-14T21:27:48;100294.84;;;23.54;36.64
1652;BME280;823;49.028;8.454;2023-06-14T21:32:48;100284.81;;;23.48;37.69
1652;BME280;823;49.028;8.454;2023-06-14T21:37:49;100283.56;;;23.42;37.24
1652;BME280;823;49.028;8.454;2023-06-14T21:42:49;100287.56;;;23.37;36.94
1652;BME280;823;49.028;8.454;2023-06-14T21:47:49;100294.94;;;23.33;37.62
1652;BME280;823;49.028;8.454;2023-06-14T21:52:50;100299.34;;;23.23;37.25
1652;BME280;823;49.028;8.454;2023-06-14T21:57:50;100302.69;;;23.15;37.62
1652;BME280;823;49.028;8.454;2023-06-14T22:02:51;100298.63;;;23.11;39.01
1652;BME280;823;49.028;8.454;2023-06-14T22:07:51;100305.81;;;23.09;39.66
1652;BME280;823;49.028;8.454;2023-06-14T22:12:52;100315.88;;;22.94;38.22
1652;BME280;823;49.028;8.454;2023-06-14T22:17:53;100308.66;;;22.86;39.44
1652;BME280;823;49.028;8.454;2023-06-14T22:22:55;100310.84;;;22.81;38.96
1652;BME280;823;49.028;8.454;2023-06-14T22:28:00;100309.84;;;22.72;39.06
1652;BME280;823;49.028;8.454;2023-06-14T22:33:00;100306.16;;;22.64;39.52
1652;BME280;823;49.028;8.454;2023-06-14T22:38:03;100305.94;;;22.67;39.77
1652;BME280;823;49.028;8.454;2023-06-14T22:43:03;100307.84;;;22.65;38.79
1652;BME280;823;49.028;8.454;2023-06-14T22:48:05;100317.75;;;22.51;38.60
1652;BME280;823;49.028;8.454;2023-06-14T22:53:05;100318.69;;;22.29;37.52
1652;BME280;823;49.028;8.454;2023-06-14T22:58:08;100315.63;;;22.24;38.06
1652;BME280;823;49.028;8.454;2023-06-14T23:25:57;100322.41;;;21.73;40.01
1652;BME280;823;49.028;8.454;2023-06-14T23:31:03;100324.59;;;21.68;41.07
1652;BME280;823;49.028;8.454;2023-06-14T23:36:07;100327.34;;;21.66;40.79
1652;BME280;823;49.028;8.454;2023-06-14T23:41:08;100332.25;;;21.59;40.49
1652;BME280;823;49.028;8.454;2023-06-14T23:46:10;100333.59;;;21.54;39.72
1652;BME280;823;49.028;8.454;2023-06-14T23:51:10;100338.97;;;21.52;39.81
1652;BME280;823;49.028;8.454;2023-06-14T23:56:10;100336.81;;;21.57;40.91
